Aviation Digital Data Service (ADDS)

Output produced by METARs form (2325 UTC 23 May 2022)
found at http://www.aviationweather.gov/metar/data/
 
TAF TAPA 232300Z 2400/2424 09010KT 9999 SCT020